sensor_id;sensor_type;location;lat;lon;timestamp;pressure;altitude;pressure_sealevel;temperature;humidity
27840;BME280;15207;42.182;24.308;2023-11-19T00:01:07;99052.03;;;6.85;57.00
27840;BME280;15207;42.182;24.308;2023-11-19T00:03:33;99044.25;;;6.95;56.90
27840;BME280;15207;42.182;24.308;2023-11-19T00:05:59;99049.19;;;6.88;56.82
27840;BME280;15207;42.182;24.308;2023-11-19T00:08:24;99049.28;;;6.99;56.90
27840;BME280;15207;42.182;24.308;2023-11-19T00:10:50;99040.97;;;6.91;56.63
27840;BME280;15207;42.182;24.308;2023-11-19T00:13:16;99043.19;;;6.97;56.76
27840;BME280;15207;42.182;24.308;2023-11-19T00:15:41;99041.59;;;6.95;55.75
27840;BME280;15207;42.182;24.308;2023-11-19T00:18:07;99062.69;;;6.85;57.11
27840;BME280;15207;42.182;24.308;2023-11-19T00:20:32;99056.31;;;6.87;57.20
27840;BME280;15207;42.182;24.308;2023-11-19T00:22:57;99053.19;;;6.81;56.60
27840;BME280;15207;42.182;24.308;2023-11-19T00:25:23;99053.63;;;6.87;56.77
27840;BME280;15207;42.182;24.308;2023-11-19T00:27:48;99066.75;;;6.91;57.32
27840;BME280;15207;42.182;24.308;2023-11-19T00:30:14;99070.25;;;6.91;57.81
27840;BME280;15207;42.182;24.308;2023-11-19T00:32:40;99067.16;;;6.97;57.08
27840;BME280;15207;42.182;24.308;2023-11-19T00:35:06;99067.81;;;6.88;57.57
27840;BME280;15207;42.182;24.308;2023-11-19T00:37:32;99065.34;;;6.85;57.78
27840;BME280;15207;42.182;24.308;2023-11-19T00:39:58;99072.69;;;6.81;57.82
27840;BME280;15207;42.182;24.308;2023-11-19T00:42:23;99073.22;;;6.73;58.54
27840;BME280;15207;42.182;24.308;2023-11-19T00:44:50;99071.81;;;6.68;58.58
27840;BME280;15207;42.182;24.308;2023-11-19T00:47:15;99072.53;;;6.70;58.39
27840;BME280;15207;42.182;24.308;2023-11-19T00:49:40;99071.28;;;6.75;58.55
27840;BME280;15207;42.182;24.308;2023-11-19T00:52:06;99072.97;;;6.77;57.95
27840;BME280;15207;42.182;24.308;2023-11-19T00:54:32;99080.88;;;6.78;58.04
27840;BME280;15207;42.182;24.308;2023-11-19T00:56:57;99074.28;;;6.84;58.16
27840;BME280;15207;42.182;24.308;2023-11-19T00:59:23;99076.41;;;6.79;57.89
27840;BME280;15207;42.182;24.308;2023-11-19T01:01:48;99080.81;;;6.93;57.93
27840;BME280;15207;42.182;24.308;2023-11-19T01:04:14;99084.31;;;6.93;57.93
27840;BME280;15207;42.182;24.308;2023-11-19T01:06:40;99092.97;;;6.97;58.31
27840;BME280;15207;42.182;24.308;2023-11-19T01:09:05;99093.59;;;7.00;57.88
27840;BME280;15207;42.182;24.308;2023-11-19T01:11:30;99105.31;;;6.98;58.65
27840;BME280;15207;42.182;24.308;2023-11-19T01:13:56;99103.91;;;7.05;58.93
27840;BME280;15207;42.182;24.308;2023-11-19T01:16:21;99096.06;;;7.04;59.47
27840;BME280;15207;42.182;24.308;2023-11-19T01:18:48;99089.97;;;7.01;60.02
27840;BME280;15207;42.182;24.308;2023-11-19T01:21:13;99081.78;;;7.18;59.44
27840;BME280;15207;42.182;24.308;2023-11-19T01:23:42;99081.69;;;7.06;59.38
27840;BME280;15207;42.182;24.308;2023-11-19T01:26:09;99092.22;;;7.08;58.72
27840;BME280;15207;42.182;24.308;2023-11-19T01:28:36;99083.13;;;6.97;59.69
27840;BME280;15207;42.182;24.308;2023-11-19T01:31:01;99087.31;;;7.01;59.27
27840;BME280;15207;42.182;24.308;2023-11-19T01:33:26;99085.41;;;7.04;59.06
27840;BME280;15207;42.182;24.308;2023-11-19T01:35:53;99090.00;;;6.74;60.55
27840;BME280;15207;42.182;24.308;2023-11-19T01:38:18;99086.88;;;6.95;59.76
27840;BME280;15207;42.182;24.308;2023-11-19T01:40:44;99091.03;;;6.99;59.38
27840;BME280;15207;42.182;24.308;2023-11-19T01:43:09;99086.47;;;7.01;59.21
27840;BME280;15207;42.182;24.308;2023-11-19T01:45:37;99101.94;;;7.09;59.43
27840;BME280;15207;42.182;24.308;2023-11-19T01:48:03;99099.13;;;6.97;59.70
27840;BME280;15207;42.182;24.308;2023-11-19T01:50:30;99107.25;;;7.09;58.93
27840;BME280;15207;42.182;24.308;2023-11-19T01:52:56;99096.13;;;6.89;59.05
27840;BME280;15207;42.182;24.308;2023-11-19T01:55:25;99106.28;;;7.10;59.17
27840;BME280;15207;42.182;24.308;2023-11-19T01:57:55;99099.66;;;7.03;59.02
27840;BME280;15207;42.182;24.308;2023-11-19T02:00:23;99095.13;;;6.77;60.04
27840;BME280;15207;42.182;24.308;2023-11-19T02:02:48;99098.91;;;6.87;59.63
27840;BME280;15207;42.182;24.308;2023-11-19T02:05:14;99104.28;;;6.73;60.16
27840;BME280;15207;42.182;24.308;2023-11-19T02:07:41;99098.88;;;6.74;59.55
27840;BME280;15207;42.182;24.308;2023-11-19T02:10:07;99111.31;;;6.74;59.99
27840;BME280;15207;42.182;24.308;2023-11-19T02:12:38;99111.34;;;6.59;60.93
27840;BME280;15207;42.182;24.308;2023-11-19T02:15:08;99108.19;;;6.67;60.09
27840;BME280;15207;42.182;24.308;2023-11-19T02:17:34;99091.59;;;6.64;60.60
27840;BME280;15207;42.182;24.308;2023-11-19T02:20:00;99107.25;;;6.68;60.27
27840;BME280;15207;42.182;24.308;2023-11-19T02:22:25;99096.31;;;6.73;59.91
27840;BME280;15207;42.182;24.308;2023-11-19T02:24:51;99093.41;;;6.63;60.06
27840;BME280;15207;42.182;24.308;2023-11-19T02:30:06;99103.78;;;6.53;60.30
27840;BME280;15207;42.182;24.308;2023-11-19T02:32:34;99089.88;;;6.63;59.65
27840;BME280;15207;42.182;24.308;2023-11-19T02:35:01;99101.53;;;6.47;60.35
27840;BME280;15207;42.182;24.308;2023-11-19T02:37:26;99102.44;;;6.60;60.12
27840;BME280;15207;42.182;24.308;2023-11-19T02:39:53;99112.03;;;6.63;60.26
27840;BME280;15207;42.182;24.308;2023-11-19T02:42:18;99110.81;;;6.54;60.46
27840;BME280;15207;42.182;24.308;2023-11-19T02:44:44;99113.47;;;6.54;60.57
27840;BME280;15207;42.182;24.308;2023-11-19T02:47:11;99108.66;;;6.46;60.83
27840;BME280;15207;42.182;24.308;2023-11-19T02:49:36;99104.75;;;6.52;60.43
27840;BME280;15207;42.182;24.308;2023-11-19T02:52:03;99107.97;;;6.57;60.46
27840;BME280;15207;42.182;24.308;2023-11-19T02:54:30;99105.66;;;6.66;60.16
27840;BME280;15207;42.182;24.308;2023-11-19T02:57:00;99109.78;;;6.70;60.10
27840;BME280;15207;42.182;24.308;2023-11-19T02:59:26;99095.31;;;6.61;60.96
27840;BME280;15207;42.182;24.308;2023-11-19T03:01:53;99111.53;;;6.71;61.54
27840;BME280;15207;42.182;24.308;2023-11-19T03:04:19;99106.91;;;6.60;60.92
27840;BME280;15207;42.182;24.308;2023-11-19T03:06:48;99109.75;;;6.57;61.57
27840;BME280;15207;42.182;24.308;2023-11-19T03:09:14;99116.31;;;6.66;61.44
27840;BME280;15207;42.182;24.308;2023-11-19T03:11:39;99112.81;;;6.51;62.23
27840;BME280;15207;42.182;24.308;2023-11-19T03:14:04;99120.16;;;6.74;61.44
27840;BME280;15207;42.182;24.308;2023-11-19T03:16:30;99112.78;;;6.65;61.35
27840;BME280;15207;42.182;24.308;2023-11-19T03:18:56;99115.63;;;6.62;61.89
27840;BME280;15207;42.182;24.308;2023-11-19T03:21:31;99119.75;;;6.53;61.59
27840;BME280;15207;42.182;24.308;2023-11-19T03:23:57;99118.47;;;6.46;62.40
27840;BME280;15207;42.182;24.308;2023-11-19T03:26:28;99112.72;;;6.52;62.32
27840;BME280;15207;42.182;24.308;2023-11-19T03:28:53;99119.50;;;6.43;61.86
27840;BME280;15207;42.182;24.308;2023-11-19T03:31:19;99117.88;;;6.55;61.19
27840;BME280;15207;42.182;24.308;2023-11-19T03:33:45;99123.56;;;6.49;60.57
27840;BME280;15207;42.182;24.308;2023-11-19T03:36:12;99129.56;;;6.53;60.95
27840;BME280;15207;42.182;24.308;2023-11-19T03:38:38;99123.41;;;6.65;60.08
27840;BME280;15207;42.182;24.308;2023-11-19T03:41:13;99128.09;;;6.61;60.40
27840;BME280;15207;42.182;24.308;2023-11-19T03:43:39;99126.19;;;6.64;58.89
27840;BME280;15207;42.182;24.308;2023-11-19T03:46:21;99128.69;;;6.52;59.66
27840;BME280;15207;42.182;24.308;2023-11-19T03:48:47;99142.09;;;6.51;60.69
27840;BME280;15207;42.182;24.308;2023-11-19T03:51:13;99140.56;;;6.46;59.90
27840;BME280;15207;42.182;24.308;2023-11-19T03:53:42;99146.16;;;6.29;60.60
27840;BME280;15207;42.182;24.308;2023-11-19T03:56:08;99142.63;;;6.28;60.01
27840;BME280;15207;42.182;24.308;2023-11-19T03:58:35;99157.34;;;6.19;60.27
27840;BME280;15207;42.182;24.308;2023-11-19T04:01:01;99160.97;;;6.33;60.15
27840;BME280;15207;42.182;24.308;2023-11-19T04:03:27;99158.78;;;6.25;60.12
27840;BME280;15207;42.182;24.308;2023-11-19T04:05:53;99165.66;;;6.42;59.71
27840;BME280;15207;42.182;24.308;2023-11-19T04:08:18;99171.13;;;6.26;60.07
27840;BME280;15207;42.182;24.308;2023-11-19T04:10:43;99179.47;;;6.20;60.49
27840;BME280;15207;42.182;24.308;2023-11-19T04:13:09;99176.78;;;6.34;59.67
27840;BME280;15207;42.182;24.308;2023-11-19T04:15:35;99183.38;;;6.14;60.05
27840;BME280;15207;42.182;24.308;2023-11-19T04:18:00;99184.91;;;6.18;60.01
27840;BME280;15207;42.182;24.308;2023-11-19T04:20:25;99188.63;;;6.16;59.76
27840;BME280;15207;42.182;24.308;2023-11-19T04:22:51;99181.97;;;6.08;60.10
27840;BME280;15207;42.182;24.308;2023-11-19T04:25:16;99170.28;;;6.11;60.20
27840;BME280;15207;42.182;24.308;2023-11-19T04:27:44;99181.00;;;5.95;60.44
27840;BME280;15207;42.182;24.308;2023-11-19T04:30:09;99181.13;;;6.08;60.32
27840;BME280;15207;42.182;24.308;2023-11-19T04:32:36;99186.31;;;6.09;60.23
27840;BME280;15207;42.182;24.308;2023-11-19T04:35:01;99193.47;;;6.09;60.22
27840;BME280;15207;42.182;24.308;2023-11-19T04:37:27;99189.94;;;6.23;60.52
27840;BME280;15207;42.182;24.308;2023-11-19T04:39:52;99190.59;;;6.12;60.40
27840;BME280;15207;42.182;24.308;2023-11-19T04:42:18;99187.56;;;6.18;60.71
27840;BME280;15207;42.182;24.308;2023-11-19T04:44:43;99192.97;;;6.17;60.68
27840;BME280;15207;42.182;24.308;2023-11-19T04:47:09;99190.59;;;5.98;60.93
27840;BME280;15207;42.182;24.308;2023-11-19T04:49:42;99184.53;;;6.10;60.34
27840;BME280;15207;42.182;24.308;2023-11-19T04:52:11;99176.34;;;5.99;60.57
27840;BME280;15207;42.182;24.308;2023-11-19T04:54:45;99190.97;;;6.20;60.47
27840;BME280;15207;42.182;24.308;2023-11-19T04:57:11;99195.78;;;5.99;60.59
27840;BME280;15207;42.182;24.308;2023-11-19T04:59:37;99196.72;;;5.83;61.98
27840;BME280;15207;42.182;24.308;2023-11-19T05:02:03;99200.63;;;5.78;61.42
27840;BME280;15207;42.182;24.308;2023-11-19T05:04:29;99194.06;;;5.83;61.40
27840;BME280;15207;42.182;24.308;2023-11-19T05:06:55;99196.56;;;6.01;60.86
27840;BME280;15207;42.182;24.308;2023-11-19T05:09:20;99188.97;;;5.95;61.14
27840;BME280;15207;42.182;24.308;2023-11-19T05:11:46;99193.50;;;5.93;61.43
27840;BME280;15207;42.182;24.308;2023-11-19T05:14:11;99190.28;;;6.02;60.98
27840;BME280;15207;42.182;24.308;2023-11-19T05:16:39;99182.88;;;5.93;60.98
27840;BME280;15207;42.182;24.308;2023-11-19T05:19:05;99193.16;;;6.14;60.42
27840;BME280;15207;42.182;24.308;2023-11-19T05:21:30;99201.63;;;6.06;60.49
27840;BME280;15207;42.182;24.308;2023-11-19T05:23:56;99210.56;;;6.05;59.52
27840;BME280;15207;42.182;24.308;2023-11-19T05:26:23;99222.66;;;5.94;60.48
27840;BME280;15207;42.182;24.308;2023-11-19T05:28:49;99220.31;;;6.04;60.56
27840;BME280;15207;42.182;24.308;2023-11-19T05:31:16;99237.63;;;6.26;60.07
27840;BME280;15207;42.182;24.308;2023-11-19T05:33:41;99233.44;;;6.07;60.58
27840;BME280;15207;42.182;24.308;2023-11-19T05:36:07;99242.00;;;6.27;59.79
27840;BME280;15207;42.182;24.308;2023-11-19T05:38:36;99239.25;;;6.29;60.27
27840;BME280;15207;42.182;24.308;2023-11-19T05:41:02;99254.91;;;6.33;60.48
27840;BME280;15207;42.182;24.308;2023-11-19T05:43:28;99252.13;;;6.50;59.85
27840;BME280;15207;42.182;24.308;2023-11-19T05:45:53;99258.78;;;6.42;59.50
27840;BME280;15207;42.182;24.308;2023-11-19T05:48:18;99252.72;;;6.40;58.67
27840;BME280;15207;42.182;24.308;2023-11-19T05:50:44;99259.63;;;6.57;59.42
27840;BME280;15207;42.182;24.308;2023-11-19T05:53:10;99253.09;;;6.63;60.42
27840;BME280;15207;42.182;24.308;2023-11-19T05:55:39;99259.16;;;6.65;59.24
27840;BME280;15207;42.182;24.308;2023-11-19T05:58:25;99246.31;;;6.72;59.39
27840;BME280;15207;42.182;24.308;2023-11-19T06:00:52;99242.03;;;6.69;58.61
27840;BME280;15207;42.182;24.308;2023-11-19T06:03:17;99254.13;;;6.60;59.25
27840;BME280;15207;42.182;24.308;2023-11-19T06:05:46;99255.13;;;6.72;58.81
27840;BME280;15207;42.182;24.308;2023-11-19T06:08:11;99236.31;;;6.75;59.15
27840;BME280;15207;42.182;24.308;2023-11-19T06:10:39;99243.66;;;6.72;59.44
27840;BME280;15207;42.182;24.308;2023-11-19T06:13:04;99239.94;;;6.74;58.44
27840;BME280;15207;42.182;24.308;2023-11-19T06:15:30;99247.75;;;6.63;59.08
27840;BME280;15207;42.182;24.308;2023-11-19T06:17:58;99235.22;;;6.51;58.43
27840;BME280;15207;42.182;24.308;2023-11-19T06:20:24;99236.66;;;6.42;59.52
27840;BME280;15207;42.182;24.308;2023-11-19T06:22:50;99246.66;;;6.38;59.48
27840;BME280;15207;42.182;24.308;2023-11-19T06:25:15;99253.84;;;6.36;60.00
27840;BME280;15207;42.182;24.308;2023-11-19T06:27:42;99254.81;;;6.35;59.99
27840;BME280;15207;42.182;24.308;2023-11-19T06:30:07;99263.91;;;6.60;59.69
27840;BME280;15207;42.182;24.308;2023-11-19T06:32:33;99273.50;;;6.63;59.13
27840;BME280;15207;42.182;24.308;2023-11-19T06:34:59;99282.44;;;6.76;58.86
27840;BME280;15207;42.182;24.308;2023-11-19T06:37:24;99281.69;;;7.01;57.43
27840;BME280;15207;42.182;24.308;2023-11-19T06:39:50;99265.81;;;7.00;56.90
27840;BME280;15207;42.182;24.308;2023-11-19T06:42:15;99272.41;;;7.22;56.40
27840;BME280;15207;42.182;24.308;2023-11-19T06:44:41;99286.28;;;7.27;56.80
27840;BME280;15207;42.182;24.308;2023-11-19T06:47:06;99278.34;;;7.40;55.61
27840;BME280;15207;42.182;24.308;2023-11-19T06:49:31;99274.44;;;7.46;54.15
27840;BME280;15207;42.182;24.308;2023-11-19T06:51:58;99259.50;;;7.43;54.90
27840;BME280;15207;42.182;24.308;2023-11-19T06:54:24;99273.59;;;7.58;54.20
27840;BME280;15207;42.182;24.308;2023-11-19T06:56:49;99269.84;;;7.48;54.50
27840;BME280;15207;42.182;24.308;2023-11-19T06:59:15;99277.97;;;7.59;54.83
27840;BME280;15207;42.182;24.308;2023-11-19T07:01:40;99281.13;;;7.51;53.78
27840;BME280;15207;42.182;24.308;2023-11-19T07:04:10;99273.88;;;7.40;53.32
27840;BME280;15207;42.182;24.308;2023-11-19T07:06:36;99277.00;;;7.60;54.02
27840;BME280;15207;42.182;24.308;2023-11-19T07:09:02;99294.09;;;7.71;54.76
27840;BME280;15207;42.182;24.308;2023-11-19T07:11:39;99298.16;;;7.76;53.84
27840;BME280;15207;42.182;24.308;2023-11-19T07:14:05;99288.66;;;7.72;53.73
27840;BME280;15207;42.182;24.308;2023-11-19T07:16:32;99306.75;;;7.67;53.05
27840;BME280;15207;42.182;24.308;2023-11-19T07:18:59;99306.75;;;7.67;53.04
27840;BME280;15207;42.182;24.308;2023-11-19T07:21:25;99307.34;;;7.45;52.98
27840;BME280;15207;42.182;24.308;2023-11-19T07:23:51;99303.31;;;7.52;53.28
27840;BME280;15207;42.182;24.308;2023-11-19T07:26:17;99320.66;;;7.45;53.35
27840;BME280;15207;42.182;24.308;2023-11-19T07:28:42;99319.09;;;7.55;53.09
27840;BME280;15207;42.182;24.308;2023-11-19T07:31:10;99312.06;;;7.54;53.97
27840;BME280;15207;42.182;24.308;2023-11-19T07:33:36;99316.56;;;7.53;53.94
27840;BME280;15207;42.182;24.308;2023-11-19T07:36:01;99314.63;;;7.56;53.42
27840;BME280;15207;42.182;24.308;2023-11-19T07:38:27;99315.50;;;7.56;54.23
27840;BME280;15207;42.182;24.308;2023-11-19T07:40:52;99312.19;;;7.65;53.92
27840;BME280;15207;42.182;24.308;2023-11-19T07:43:18;99318.38;;;7.66;53.77
27840;BME280;15207;42.182;24.308;2023-11-19T07:45:43;99320.19;;;7.65;54.21
27840;BME280;15207;42.182;24.308;2023-11-19T07:48:10;99314.38;;;7.73;52.89
27840;BME280;15207;42.182;24.308;2023-11-19T07:50:36;99313.97;;;7.79;53.71
27840;BME280;15207;42.182;24.308;2023-11-19T07:53:01;99324.53;;;7.81;52.99
27840;BME280;15207;42.182;24.308;2023-11-19T07:55:29;99312.91;;;7.95;53.69
27840;BME280;15207;42.182;24.308;2023-11-19T07:57:55;99316.00;;;7.89;52.58
27840;BME280;15207;42.182;24.308;2023-11-19T08:00:21;99325.38;;;7.94;51.74
27840;BME280;15207;42.182;24.308;2023-11-19T08:02:46;99331.38;;;7.98;52.86
27840;BME280;15207;42.182;24.308;2023-11-19T08:05:11;99329.13;;;8.18;53.00
27840;BME280;15207;42.182;24.308;2023-11-19T08:07:37;99334.72;;;8.28;52.26
27840;BME280;15207;42.182;24.308;2023-11-19T08:10:04;99338.00;;;8.31;52.34
27840;BME280;15207;42.182;24.308;2023-11-19T08:12:30;99333.22;;;8.50;52.76
27840;BME280;15207;42.182;24.308;2023-11-19T08:14:56;99340.50;;;8.60;53.54
27840;BME280;15207;42.182;24.308;2023-11-19T08:17:23;99333.13;;;8.64;51.76
27840;BME280;15207;42.182;24.308;2023-11-19T08:19:49;99330.78;;;8.59;51.88
27840;BME280;15207;42.182;24.308;2023-11-19T08:22:14;99327.88;;;8.63;51.16
27840;BME280;15207;42.182;24.308;2023-11-19T08:24:40;99327.34;;;8.57;51.31
27840;BME280;15207;42.182;24.308;2023-11-19T08:27:05;99308.69;;;8.57;52.38
27840;BME280;15207;42.182;24.308;2023-11-19T08:29:31;99324.78;;;8.82;51.35
27840;BME280;15207;42.182;24.308;2023-11-19T08:31:56;99321.66;;;8.88;51.24
27840;BME280;15207;42.182;24.308;2023-11-19T08:34:21;99315.25;;;8.91;50.67
27840;BME280;15207;42.182;24.308;2023-11-19T08:36:51;99321.16;;;8.83;50.06
27840;BME280;15207;42.182;24.308;2023-11-19T08:39:19;99326.16;;;8.75;50.14
27840;BME280;15207;42.182;24.308;2023-11-19T08:41:47;99326.50;;;8.70;50.60
27840;BME280;15207;42.182;24.308;2023-11-19T08:44:13;99330.78;;;8.72;51.37
27840;BME280;15207;42.182;24.308;2023-11-19T08:46:39;99335.22;;;8.85;51.40
27840;BME280;15207;42.182;24.308;2023-11-19T08:49:05;99340.00;;;9.06;50.71
27840;BME280;15207;42.182;24.308;2023-11-19T08:51:32;99342.00;;;9.15;49.78
27840;BME280;15207;42.182;24.308;2023-11-19T08:53:57;99320.72;;;9.26;50.11
27840;BME280;15207;42.182;24.308;2023-11-19T08:56:23;99323.72;;;9.46;49.25
27840;BME280;15207;42.182;24.308;2023-11-19T08:58:48;99318.53;;;9.56;49.54
27840;BME280;15207;42.182;24.308;2023-11-19T09:01:13;99320.03;;;9.60;48.63
27840;BME280;15207;42.182;24.308;2023-11-19T09:03:39;99336.78;;;9.62;48.54
27840;BME280;15207;42.182;24.308;2023-11-19T09:06:05;99336.56;;;9.65;48.16
27840;BME280;15207;42.182;24.308;2023-11-19T09:08:30;99340.78;;;9.32;48.00
27840;BME280;15207;42.182;24.308;2023-11-19T09:10:56;99334.25;;;9.36;48.68
27840;BME280;15207;42.182;24.308;2023-11-19T09:13:21;99325.81;;;9.30;48.92
27840;BME280;15207;42.182;24.308;2023-11-19T09:15:47;99333.84;;;9.54;48.86
27840;BME280;15207;42.182;24.308;2023-11-19T09:18:12;99334.28;;;9.72;48.35
27840;BME280;15207;42.182;24.308;2023-11-19T09:20:37;99327.34;;;9.70;47.81
27840;BME280;15207;42.182;24.308;2023-11-19T09:23:05;99329.16;;;9.69;47.59
27840;BME280;15207;42.182;24.308;2023-11-19T09:25:30;99331.84;;;9.69;47.52
27840;BME280;15207;42.182;24.308;2023-11-19T09:27:56;99329.53;;;9.64;47.54
27840;BME280;15207;42.182;24.308;2023-11-19T09:30:21;99317.97;;;9.64;48.49
27840;BME280;15207;42.182;24.308;2023-11-19T09:32:48;99312.22;;;9.82;47.71
27840;BME280;15207;42.182;24.308;2023-11-19T09:35:13;99312.25;;;10.04;48.20
27840;BME280;15207;42.182;24.308;2023-11-19T09:37:40;99304.50;;;9.77;46.85
27840;BME280;15207;42.182;24.308;2023-11-19T09:40:06;99322.09;;;10.04;47.23
27840;BME280;15207;42.182;24.308;2023-11-19T09:42:44;99313.53;;;9.87;47.45
27840;BME280;15207;42.182;24.308;2023-11-19T09:45:14;99325.84;;;10.01;46.92
27840;BME280;15207;42.182;24.308;2023-11-19T09:47:44;99337.44;;;10.02;46.69
27840;BME280;15207;42.182;24.308;2023-11-19T09:50:16;99329.38;;;9.90;47.55
27840;BME280;15207;42.182;24.308;2023-11-19T09:52:43;99340.97;;;10.02;47.04
27840;BME280;15207;42.182;24.308;2023-11-19T09:55:09;99345.84;;;10.09;46.64
27840;BME280;15207;42.182;24.308;2023-11-19T09:57:35;99345.75;;;10.22;46.38
27840;BME280;15207;42.182;24.308;2023-11-19T10:00:04;99347.94;;;10.28;46.51
27840;BME280;15207;42.182;24.308;2023-11-19T10:02:33;99327.75;;;10.24;45.41
27840;BME280;15207;42.182;24.308;2023-11-19T10:04:59;99335.53;;;10.27;45.83
27840;BME280;15207;42.182;24.308;2023-11-19T10:07:28;99332.47;;;10.20;46.23
27840;BME280;15207;42.182;24.308;2023-11-19T10:09:54;99320.19;;;10.17;46.51
27840;BME280;15207;42.182;24.308;2023-11-19T10:12:19;99318.50;;;10.28;46.34
27840;BME280;15207;42.182;24.308;2023-11-19T10:14:45;99315.59;;;10.42;46.14
27840;BME280;15207;42.182;24.308;2023-11-19T10:17:11;99308.84;;;10.50;46.40
27840;BME280;15207;42.182;24.308;2023-11-19T10:19:36;99301.75;;;10.49;45.25
27840;BME280;15207;42.182;24.308;2023-11-19T10:22:05;99300.31;;;10.44;45.26
27840;BME280;15207;42.182;24.308;2023-11-19T10:24:34;99294.41;;;10.28;44.89
27840;BME280;15207;42.182;24.308;2023-11-19T10:27:00;99279.09;;;10.30;45.13
27840;BME280;15207;42.182;24.308;2023-11-19T10:29:29;99280.91;;;10.41;45.49
27840;BME280;15207;42.182;24.308;2023-11-19T10:31:58;99279.47;;;10.37;45.24
27840;BME280;15207;42.182;24.308;2023-11-19T10:34:24;99273.88;;;10.40;45.95
27840;BME280;15207;42.182;24.308;2023-11-19T10:36:50;99290.22;;;10.48;44.58
27840;BME280;15207;42.182;24.308;2023-11-19T10:39:15;99285.41;;;10.29;44.54
27840;BME280;15207;42.182;24.308;2023-11-19T10:41:43;99284.94;;;10.35;45.14
27840;BME280;15207;42.182;24.308;2023-11-19T10:44:09;99282.00;;;10.38;45.23
27840;BME280;15207;42.182;24.308;2023-11-19T10:46:39;99274.63;;;10.42;45.39
27840;BME280;15207;42.182;24.308;2023-11-19T10:49:05;99267.53;;;10.41;44.59
27840;BME280;15207;42.182;24.308;2023-11-19T10:51:32;99268.03;;;10.35;44.79
27840;BME280;15207;42.182;24.308;2023-11-19T10:54:02;99264.75;;;10.31;44.92
27840;BME280;15207;42.182;24.308;2023-11-19T10:56:30;99256.00;;;10.40;45.41
27840;BME280;15207;42.182;24.308;2023-11-19T10:58:59;99254.25;;;10.28;45.14
27840;BME280;15207;42.182;24.308;2023-11-19T11:01:27;99248.31;;;10.36;44.92
27840;BME280;15207;42.182;24.308;2023-11-19T11:03:55;99252.44;;;10.40;45.31
27840;BME280;15207;42.182;24.308;2023-11-19T11:06:23;99253.22;;;10.53;45.47
27840;BME280;15207;42.182;24.308;2023-11-19T11:08:50;99248.22;;;10.71;45.94
27840;BME280;15207;42.182;24.308;2023-11-19T11:11:16;99248.44;;;10.68;44.95
27840;BME280;15207;42.182;24.308;2023-11-19T11:13:49;99239.31;;;10.71;45.10
27840;BME280;15207;42.182;24.308;2023-11-19T11:16:18;99243.69;;;10.61;44.34
27840;BME280;15207;42.182;24.308;2023-11-19T11:18:45;99248.44;;;10.68;44.73
27840;BME280;15207;42.182;24.308;2023-11-19T11:21:15;99242.84;;;10.71;44.53
27840;BME280;15207;42.182;24.308;2023-11-19T11:24:07;99240.41;;;10.68;44.57
27840;BME280;15207;42.182;24.308;2023-11-19T11:29:48;99235.66;;;10.61;44.58
27840;BME280;15207;42.182;24.308;2023-11-19T11:37:49;99229.00;;;10.55;44.56
27840;BME280;15207;42.182;24.308;2023-11-19T11:40:18;99222.91;;;10.64;45.17
27840;BME280;15207;42.182;24.308;2023-11-19T11:42:44;99215.19;;;10.71;44.65
27840;BME280;15207;42.182;24.308;2023-11-19T11:45:10;99221.44;;;10.60;44.89
27840;BME280;15207;42.182;24.308;2023-11-19T11:50:15;99211.84;;;10.57;44.91
27840;BME280;15207;42.182;24.308;2023-11-19T11:55:34;99212.41;;;10.73;44.81
27840;BME280;15207;42.182;24.308;2023-11-19T11:58:01;99214.31;;;10.93;44.21
27840;BME280;15207;42.182;24.308;2023-11-19T12:00:33;99217.34;;;11.00;44.10
27840;BME280;15207;42.182;24.308;2023-11-19T12:03:04;99201.28;;;10.89;43.48
27840;BME280;15207;42.182;24.308;2023-11-19T12:05:29;99198.19;;;10.61;44.32
27840;BME280;15207;42.182;24.308;2023-11-19T12:08:02;99203.19;;;10.65;45.51
27840;BME280;15207;42.182;24.308;2023-11-19T12:10:29;99199.53;;;10.43;45.03
27840;BME280;15207;42.182;24.308;2023-11-19T12:13:01;99192.94;;;10.36;44.83
27840;BME280;15207;42.182;24.308;2023-11-19T12:15:30;99198.06;;;10.16;45.69
27840;BME280;15207;42.182;24.308;2023-11-19T12:17:55;99192.34;;;10.32;45.36
27840;BME280;15207;42.182;24.308;2023-11-19T12:20:23;99197.34;;;10.14;45.57
27840;BME280;15207;42.182;24.308;2023-11-19T12:22:48;99192.69;;;10.28;45.82
27840;BME280;15207;42.182;24.308;2023-11-19T12:25:15;99196.59;;;10.35;44.88
27840;BME280;15207;42.182;24.308;2023-11-19T12:27:43;99194.53;;;10.27;45.84
27840;BME280;15207;42.182;24.308;2023-11-19T12:30:09;99198.66;;;10.43;45.34
27840;BME280;15207;42.182;24.308;2023-11-19T12:32:42;99196.38;;;10.50;45.62
27840;BME280;15207;42.182;24.308;2023-11-19T12:35:08;99191.97;;;10.49;45.12
27840;BME280;15207;42.182;24.308;2023-11-19T12:37:54;99186.28;;;10.53;44.77
27840;BME280;15207;42.182;24.308;2023-11-19T12:40:23;99189.06;;;10.40;45.52
27840;BME280;15207;42.182;24.308;2023-11-19T12:42:49;99180.31;;;10.50;44.87
27840;BME280;15207;42.182;24.308;2023-11-19T12:45:15;99171.91;;;10.43;45.17
27840;BME280;15207;42.182;24.308;2023-11-19T12:47:45;99170.31;;;10.40;45.23
27840;BME280;15207;42.182;24.308;2023-11-19T12:50:15;99168.63;;;10.39;45.92
27840;BME280;15207;42.182;24.308;2023-11-19T12:52:42;99180.06;;;10.41;45.03
27840;BME280;15207;42.182;24.308;2023-11-19T12:55:28;99176.28;;;10.21;45.30
27840;BME280;15207;42.182;24.308;2023-11-19T12:57:54;99167.53;;;10.08;45.77
27840;BME280;15207;42.182;24.308;2023-11-19T13:00:22;99156.72;;;10.09;45.56
27840;BME280;15207;42.182;24.308;2023-11-19T13:02:54;99151.84;;;10.03;45.78
27840;BME280;15207;42.182;24.308;2023-11-19T13:05:29;99137.72;;;10.12;45.54
27840;BME280;15207;42.182;24.308;2023-11-19T13:08:09;99126.06;;;10.25;46.37
27840;BME280;15207;42.182;24.308;2023-11-19T13:10:52;99137.47;;;10.27;45.95
27840;BME280;15207;42.182;24.308;2023-11-19T13:13:18;99139.44;;;10.25;45.93